createdAt,value
2023-03-17T00:01:44.620Z,10.60
2023-03-17T00:04:12.352Z,10.56
2023-03-17T00:06:39.119Z,10.55
2023-03-17T00:09:11.449Z,10.54
2023-03-17T00:11:37.905Z,10.54
2023-03-17T00:14:04.616Z,10.50
2023-03-17T00:16:34.792Z,10.49
2023-03-17T00:19:01.484Z,10.42
2023-03-17T00:21:30.868Z,10.38
2023-03-17T00:23:58.258Z,10.39
2023-03-17T00:26:25.440Z,10.37
2023-03-17T00:28:52.982Z,10.36
2023-03-17T00:31:22.303Z,10.33
2023-03-17T00:33:52.839Z,10.29
2023-03-17T00:36:25.000Z,10.27
2023-03-17T00:38:52.545Z,10.22
2023-03-17T00:41:19.826Z,10.16
2023-03-17T00:43:46.600Z,10.13
2023-03-17T00:46:19.608Z,10.14
2023-03-17T00:48:46.679Z,10.13
2023-03-17T00:51:13.053Z,10.09
2023-03-17T00:53:39.945Z,10.06
2023-03-17T00:56:14.560Z,10.09
2023-03-17T00:58:41.369Z,10.06
2023-03-17T01:01:08.795Z,9.99
2023-03-17T01:03:35.602Z,10.00
2023-03-17T01:06:04.569Z,9.99
2023-03-17T01:08:31.441Z,10.00
2023-03-17T01:10:58.538Z,9.96
2023-03-17T01:13:25.524Z,9.96
2023-03-17T01:15:52.696Z,9.96
2023-03-17T01:18:22.689Z,9.90
2023-03-17T01:20:49.835Z,10.01
2023-03-17T01:23:17.674Z,10.00
2023-03-17T01:25:45.361Z,10.03
2023-03-17T01:28:18.444Z,10.04
2023-03-17T01:30:45.525Z,10.00
2023-03-17T01:33:13.090Z,10.03
2023-03-17T01:35:41.334Z,10.04
2023-03-17T01:38:08.432Z,10.06
2023-03-17T01:40:43.816Z,10.06
2023-03-17T01:43:10.226Z,10.06
2023-03-17T01:46:14.137Z,10.04
2023-03-17T01:48:41.777Z,10.04
2023-03-17T01:51:11.360Z,9.98
2023-03-17T01:53:39.728Z,9.98
2023-03-17T01:56:07.829Z,9.98
2023-03-17T01:58:34.500Z,9.96
2023-03-17T02:01:01.607Z,9.96
2023-03-17T02:03:29.796Z,9.96
2023-03-17T02:05:57.927Z,9.97
2023-03-17T02:08:24.599Z,9.94
2023-03-17T02:10:52.300Z,9.95
2023-03-17T02:13:18.870Z,9.94
2023-03-17T02:15:50.835Z,9.97
2023-03-17T02:18:20.144Z,9.98
2023-03-17T02:20:46.697Z,9.98
2023-03-17T02:23:18.986Z,9.99
2023-03-17T02:25:47.280Z,9.99
2023-03-17T02:28:18.770Z,10.00
2023-03-17T02:30:45.516Z,9.97
2023-03-17T02:33:12.254Z,10.00
2023-03-17T02:35:42.160Z,9.99
2023-03-17T02:38:08.656Z,10.00
2023-03-17T02:40:35.014Z,10.04
2023-03-17T02:43:02.399Z,10.05
2023-03-17T02:45:29.022Z,10.10
2023-03-17T02:47:55.982Z,10.11
2023-03-17T02:50:25.545Z,10.12
2023-03-17T02:52:52.035Z,10.13
2023-03-17T02:55:18.812Z,10.11
2023-03-17T02:57:45.501Z,10.12
2023-03-17T03:00:13.345Z,10.08
2023-03-17T03:02:40.540Z,10.09
2023-03-17T03:05:08.806Z,10.08
2023-03-17T03:07:35.561Z,10.07
2023-03-17T03:10:02.816Z,10.05
2023-03-17T03:12:29.241Z,10.07
2023-03-17T03:14:55.661Z,10.08
2023-03-17T03:17:22.121Z,10.06
2023-03-17T03:19:49.566Z,10.09
2023-03-17T03:22:16.086Z,10.08
2023-03-17T03:24:42.579Z,10.11
2023-03-17T03:27:13.779Z,10.13
2023-03-17T03:29:40.301Z,10.12
2023-03-17T03:32:07.284Z,10.12
2023-03-17T03:34:33.925Z,10.16
2023-03-17T03:37:00.541Z,10.16
2023-03-17T03:39:26.993Z,10.15
2023-03-17T03:41:57.282Z,10.12
2023-03-17T03:44:24.543Z,10.13
2023-03-17T03:46:51.761Z,10.15
2023-03-17T03:49:18.373Z,10.20
2023-03-17T03:51:44.902Z,10.18
2023-03-17T03:54:11.337Z,10.16
2023-03-17T03:56:37.772Z,10.15
2023-03-17T03:59:04.232Z,10.11
2023-03-17T04:01:30.837Z,10.10
2023-03-17T04:03:57.221Z,10.14
2023-03-17T04:06:23.613Z,10.13
2023-03-17T04:08:50.039Z,10.18
2023-03-17T04:11:16.686Z,10.18
2023-03-17T04:13:43.274Z,10.19
2023-03-17T04:16:09.783Z,10.20
2023-03-17T04:18:36.351Z,10.16
2023-03-17T04:21:02.901Z,10.13
2023-03-17T04:23:31.354Z,10.15
2023-03-17T04:25:58.450Z,10.18
2023-03-17T04:28:25.040Z,10.18
2023-03-17T04:30:51.662Z,10.17
2023-03-17T04:33:18.985Z,10.22
2023-03-17T04:35:45.421Z,10.21
2023-03-17T04:38:13.221Z,10.23
2023-03-17T04:40:39.709Z,10.23
2023-03-17T04:43:06.477Z,10.23
2023-03-17T04:45:33.269Z,10.24
2023-03-17T04:47:59.752Z,10.26
2023-03-17T04:50:26.487Z,10.24
2023-03-17T04:52:52.939Z,10.25
2023-03-17T04:55:19.410Z,10.27
2023-03-17T04:57:46.435Z,10.27
2023-03-17T05:00:13.481Z,10.28
2023-03-17T05:02:40.063Z,10.29
2023-03-17T05:05:06.997Z,10.28
2023-03-17T05:07:34.205Z,10.29
2023-03-17T05:10:00.895Z,10.27
2023-03-17T05:12:27.575Z,10.28
2023-03-17T05:14:53.992Z,10.27
2023-03-17T05:17:20.730Z,10.28
2023-03-17T05:19:47.469Z,10.25
2023-03-17T05:22:13.897Z,10.23
2023-03-17T05:24:40.337Z,10.25
2023-03-17T05:27:06.816Z,10.26
2023-03-17T05:29:33.188Z,10.28
2023-03-17T05:31:59.562Z,10.27
2023-03-17T05:34:25.997Z,10.26
2023-03-17T05:36:52.372Z,10.25
2023-03-17T05:39:18.795Z,10.25
2023-03-17T05:41:45.623Z,10.25
2023-03-17T05:44:12.068Z,10.24
2023-03-17T05:46:38.472Z,10.21
2023-03-17T05:49:04.910Z,10.19
2023-03-17T05:51:31.594Z,10.18
2023-03-17T05:54:00.138Z,10.18
2023-03-17T05:56:33.164Z,10.11
2023-03-17T05:59:01.606Z,10.15
2023-03-17T06:01:29.073Z,10.15
2023-03-17T06:03:55.787Z,10.18
2023-03-17T06:06:22.301Z,10.18
2023-03-17T06:08:48.686Z,10.19
2023-03-17T06:11:15.598Z,10.17
2023-03-17T06:13:42.285Z,10.16
2023-03-17T06:16:09.634Z,10.17
2023-03-17T06:18:36.563Z,10.18
2023-03-17T06:21:03.093Z,10.21
2023-03-17T06:23:29.604Z,10.21
2023-03-17T06:25:56.294Z,10.19
2023-03-17T06:28:23.330Z,10.19
2023-03-17T06:30:50.391Z,10.18
2023-03-17T06:33:19.127Z,10.26
2023-03-17T06:35:45.905Z,10.30
2023-03-17T06:38:13.388Z,10.34
2023-03-17T06:40:39.842Z,10.39
2023-03-17T06:43:06.339Z,10.44
2023-03-17T06:45:34.037Z,10.48
2023-03-17T06:48:00.564Z,10.57
2023-03-17T06:50:27.223Z,10.70
2023-03-17T06:52:53.775Z,10.92
2023-03-17T06:55:21.312Z,11.30
2023-03-17T06:57:50.427Z,11.54
2023-03-17T07:00:18.054Z,11.58
2023-03-17T07:02:44.570Z,11.63
2023-03-17T07:05:12.665Z,11.79
2023-03-17T07:07:39.453Z,11.97
2023-03-17T07:10:07.019Z,12.14
2023-03-17T07:12:33.738Z,12.27
2023-03-17T07:15:00.298Z,12.37
2023-03-17T07:17:27.306Z,12.42
2023-03-17T07:19:53.780Z,12.31
2023-03-17T07:22:20.312Z,12.31
2023-03-17T07:24:48.959Z,12.32
2023-03-17T07:27:16.437Z,12.35
2023-03-17T07:29:42.862Z,12.34
2023-03-17T07:32:10.372Z,12.30
2023-03-17T07:34:37.424Z,12.21
2023-03-17T07:37:06.377Z,12.29
2023-03-17T07:39:33.004Z,12.28
2023-03-17T07:41:59.485Z,12.29
2023-03-17T07:44:26.110Z,12.30
2023-03-17T07:46:52.922Z,12.31
2023-03-17T07:49:34.008Z,12.14
2023-03-17T07:52:07.033Z,12.25
2023-03-17T07:54:33.780Z,12.31
2023-03-17T07:57:00.488Z,12.29
2023-03-17T07:59:27.363Z,12.36
2023-03-17T08:01:53.853Z,12.37
2023-03-17T08:04:20.276Z,12.47
2023-03-17T08:06:46.744Z,12.72
2023-03-17T08:09:13.143Z,13.14
2023-03-17T08:11:39.604Z,13.61
2023-03-17T08:14:06.503Z,14.17
2023-03-17T08:16:33.213Z,14.47
2023-03-17T08:18:59.941Z,14.78
2023-03-17T08:21:29.176Z,15.25
2023-03-17T08:24:00.825Z,15.80
2023-03-17T08:26:27.288Z,16.24
2023-03-17T08:28:53.805Z,16.69
2023-03-17T08:31:21.569Z,17.22
2023-03-17T08:33:53.979Z,17.76
2023-03-17T08:36:21.324Z,18.34
2023-03-17T08:38:48.274Z,18.82
2023-03-17T08:41:18.175Z,19.21
2023-03-17T08:43:45.638Z,19.40
2023-03-17T08:46:17.162Z,19.80
2023-03-17T08:48:45.110Z,20.06
2023-03-17T08:51:11.576Z,20.45
2023-03-17T08:53:38.798Z,20.88
2023-03-17T08:56:06.968Z,21.02
2023-03-17T08:58:35.399Z,21.23
2023-03-17T09:01:04.408Z,21.26
2023-03-17T09:03:32.667Z,21.33
2023-03-17T09:06:02.217Z,21.63
2023-03-17T09:08:29.397Z,21.79
2023-03-17T09:10:55.854Z,22.13
2023-03-17T09:13:22.664Z,22.43
2023-03-17T09:15:51.839Z,22.35
2023-03-17T09:18:21.913Z,22.30
2023-03-17T09:20:48.856Z,22.38
2023-03-17T09:23:15.944Z,22.60
2023-03-17T09:25:42.827Z,22.63
2023-03-17T09:28:11.702Z,22.61
2023-03-17T09:30:42.678Z,22.71
2023-03-17T09:33:12.943Z,22.61
2023-03-17T09:35:41.196Z,22.70
2023-03-17T09:38:08.560Z,22.69
2023-03-17T09:40:46.987Z,22.71
2023-03-17T09:43:40.857Z,22.80
2023-03-17T09:46:31.610Z,22.92
2023-03-17T09:49:01.461Z,23.19
2023-03-17T09:51:29.964Z,23.48
2023-03-17T09:54:03.722Z,23.77
2023-03-17T09:56:34.856Z,23.95
2023-03-17T09:59:27.732Z,24.23
2023-03-17T10:01:54.673Z,24.55
2023-03-17T10:04:21.162Z,24.79
2023-03-17T10:06:50.091Z,24.79
2023-03-17T10:09:35.687Z,24.53
2023-03-17T10:12:36.781Z,24.25
2023-03-17T10:15:13.842Z,23.92
2023-03-17T10:17:42.009Z,23.77
2023-03-17T10:20:22.983Z,23.71
2023-03-17T10:22:54.707Z,23.69
2023-03-17T10:25:24.385Z,23.94
2023-03-17T10:27:56.225Z,23.83
2023-03-17T10:30:23.880Z,23.62
2023-03-17T10:32:54.206Z,23.54
2023-03-17T10:35:23.361Z,23.34
2023-03-17T10:37:49.741Z,23.27
2023-03-17T10:40:25.788Z,23.43
2023-03-17T10:42:56.469Z,23.67
2023-03-17T10:45:31.100Z,23.91
2023-03-17T10:47:59.543Z,23.55
2023-03-17T10:50:32.538Z,23.02
2023-03-17T10:53:27.891Z,22.54
2023-03-17T10:55:58.948Z,22.10
2023-03-17T10:58:39.673Z,21.78
2023-03-17T11:01:17.493Z,21.81
2023-03-17T11:03:44.193Z,21.84
2023-03-17T11:06:13.704Z,21.84
2023-03-17T11:09:09.458Z,21.64
2023-03-17T11:11:47.035Z,21.40
2023-03-17T11:14:15.309Z,21.04
2023-03-17T11:16:54.815Z,20.90
2023-03-17T11:19:51.119Z,20.66
2023-03-17T11:22:31.250Z,20.36
2023-03-17T11:25:06.507Z,20.10
2023-03-17T11:27:36.094Z,19.95
2023-03-17T11:30:25.520Z,19.76
2023-03-17T11:33:18.370Z,19.59
2023-03-17T11:36:09.217Z,19.53
2023-03-17T11:38:50.394Z,19.57
2023-03-17T11:41:41.228Z,19.72
2023-03-17T11:44:29.352Z,19.89
2023-03-17T11:47:04.070Z,20.09
2023-03-17T11:49:38.610Z,20.18
2023-03-17T11:52:23.300Z,20.24
2023-03-17T11:55:14.455Z,20.32
2023-03-17T11:57:48.796Z,20.25
2023-03-17T12:00:43.837Z,20.14
2023-03-17T12:03:20.702Z,20.02
2023-03-17T12:05:54.527Z,20.11
2023-03-17T12:08:39.667Z,20.21
2023-03-17T12:11:10.902Z,20.32
2023-03-17T12:13:43.431Z,20.53
2023-03-17T12:16:16.057Z,20.69
2023-03-17T12:19:10.201Z,20.80
2023-03-17T12:21:52.562Z,20.90
2023-03-17T12:25:04.695Z,21.08
2023-03-17T12:27:42.890Z,21.18
2023-03-17T12:30:34.377Z,21.07
2023-03-17T12:33:10.806Z,20.93
2023-03-17T12:35:41.077Z,20.94
2023-03-17T12:38:16.025Z,20.93
2023-03-17T12:40:51.282Z,20.84
2023-03-17T12:43:38.993Z,20.81
2023-03-17T12:46:28.802Z,20.79
2023-03-17T12:49:37.390Z,20.85
2023-03-17T12:52:21.960Z,20.78
2023-03-17T12:54:51.986Z,20.79
2023-03-17T12:57:22.039Z,20.88
2023-03-17T12:59:57.439Z,20.89
2023-03-17T13:02:29.926Z,20.91
2023-03-17T13:05:00.762Z,20.73
2023-03-17T13:07:36.795Z,20.68
2023-03-17T13:10:03.181Z,20.61
2023-03-17T13:12:44.677Z,20.49
2023-03-17T13:15:28.105Z,20.40
2023-03-17T13:18:16.183Z,20.42
2023-03-17T13:20:56.578Z,20.34
2023-03-17T13:23:47.255Z,20.31
2023-03-17T13:26:18.455Z,20.26
2023-03-17T13:28:49.048Z,20.31
2023-03-17T13:31:27.406Z,20.43
2023-03-17T13:33:56.618Z,20.51
2023-03-17T13:36:34.568Z,20.52
2023-03-17T13:39:24.717Z,20.62
2023-03-17T13:42:17.601Z,20.72
2023-03-17T13:45:01.399Z,20.90
2023-03-17T13:47:38.341Z,20.97
2023-03-17T13:50:08.438Z,20.94
2023-03-17T13:53:01.824Z,20.91
2023-03-17T13:55:34.974Z,20.92
2023-03-17T13:58:11.839Z,20.93
2023-03-17T14:00:41.550Z,20.83
2023-03-17T14:03:18.013Z,20.64
2023-03-17T14:05:49.387Z,20.53
2023-03-17T14:08:35.744Z,20.53
2023-03-17T14:11:07.230Z,20.49
2023-03-17T14:13:47.197Z,20.50
2023-03-17T14:16:36.419Z,20.40
2023-03-17T14:19:22.146Z,20.49
2023-03-17T14:21:48.833Z,20.49
2023-03-17T14:24:29.444Z,20.43
2023-03-17T14:26:56.175Z,20.47
2023-03-17T14:29:31.853Z,20.46
2023-03-17T14:32:07.656Z,20.40
2023-03-17T14:34:34.123Z,20.40
2023-03-17T14:37:02.440Z,20.44
2023-03-17T14:39:29.279Z,20.46
2023-03-17T14:42:13.990Z,20.53
2023-03-17T14:44:42.787Z,20.58
2023-03-17T14:47:18.801Z,20.57
2023-03-17T14:49:45.469Z,20.58
2023-03-17T14:52:27.796Z,20.58
2023-03-17T14:54:58.199Z,20.55
2023-03-17T14:57:32.873Z,20.59
2023-03-17T15:00:01.719Z,20.63
2023-03-17T15:02:36.189Z,20.66
2023-03-17T15:05:26.450Z,20.62
2023-03-17T15:07:53.310Z,20.54
2023-03-17T15:10:22.961Z,20.52
2023-03-17T15:12:49.500Z,20.46
2023-03-17T15:15:29.421Z,20.47
2023-03-17T15:17:58.720Z,20.43
2023-03-17T15:20:25.611Z,20.38
2023-03-17T15:23:17.214Z,20.34
2023-03-17T15:25:55.450Z,20.28
2023-03-17T15:28:25.049Z,20.26
2023-03-17T15:30:54.857Z,20.26
2023-03-17T15:33:38.947Z,20.16
2023-03-17T15:36:06.128Z,20.06
2023-03-17T15:38:33.705Z,19.99
2023-03-17T15:41:00.097Z,19.91
2023-03-17T15:43:27.710Z,19.88
2023-03-17T15:45:59.742Z,19.80
2023-03-17T15:48:29.853Z,19.76
2023-03-17T15:50:58.684Z,19.72
2023-03-17T15:53:25.669Z,19.68
2023-03-17T15:55:53.253Z,19.59
2023-03-17T15:58:20.384Z,19.54
2023-03-17T16:00:52.567Z,19.52
2023-03-17T16:03:26.899Z,19.49
2023-03-17T16:05:53.476Z,19.50
2023-03-17T16:08:20.146Z,19.50
2023-03-17T16:10:46.871Z,19.50
2023-03-17T16:13:14.222Z,19.50
2023-03-17T16:15:43.578Z,19.39
2023-03-17T16:18:18.075Z,19.33
2023-03-17T16:20:47.664Z,19.28
2023-03-17T16:23:21.123Z,19.19
2023-03-17T16:25:48.421Z,19.17
2023-03-17T16:28:23.853Z,19.11
2023-03-17T16:30:51.425Z,19.06
2023-03-17T16:33:23.162Z,19.03
2023-03-17T16:35:50.307Z,19.00
2023-03-17T16:38:19.201Z,18.97
2023-03-17T16:40:49.167Z,18.94
2023-03-17T16:43:39.367Z,18.95
2023-03-17T16:46:07.404Z,18.95
2023-03-17T16:48:34.507Z,18.94
2023-03-17T16:51:01.023Z,18.94
2023-03-17T16:53:27.524Z,18.95
2023-03-17T16:55:54.406Z,18.92
2023-03-17T16:58:24.277Z,18.91
2023-03-17T17:00:54.211Z,18.91
2023-03-17T17:03:23.538Z,18.89
2023-03-17T17:05:50.220Z,18.86
2023-03-17T17:08:16.864Z,18.89
2023-03-17T17:10:43.445Z,18.87
2023-03-17T17:13:12.072Z,18.87
2023-03-17T17:15:39.144Z,18.85
2023-03-17T17:18:12.698Z,18.84
2023-03-17T17:20:40.458Z,18.82
2023-03-17T17:23:11.677Z,18.77
2023-03-17T17:25:38.325Z,18.71
2023-03-17T17:28:05.516Z,18.66
2023-03-17T17:30:33.691Z,18.64
2023-03-17T17:33:00.875Z,18.59
2023-03-17T17:35:32.503Z,18.52
2023-03-17T17:38:02.527Z,18.46
2023-03-17T17:40:30.761Z,18.41
2023-03-17T17:42:57.908Z,18.34
2023-03-17T17:45:24.702Z,18.26
2023-03-17T17:47:51.152Z,18.23
2023-03-17T17:50:21.528Z,18.15
2023-03-17T17:52:48.089Z,18.08
2023-03-17T17:55:14.817Z,18.02
2023-03-17T17:57:41.899Z,17.96
2023-03-17T18:00:09.162Z,17.91
2023-03-17T18:02:38.437Z,17.83
2023-03-17T18:05:06.036Z,17.83
2023-03-17T18:07:32.634Z,17.78
2023-03-17T18:09:59.107Z,17.71
2023-03-17T18:12:27.634Z,17.68
2023-03-17T18:14:54.142Z,17.62
2023-03-17T18:17:23.476Z,17.65
2023-03-17T18:19:53.376Z,17.64
2023-03-17T18:22:20.325Z,17.62
2023-03-17T18:24:46.873Z,17.58
2023-03-17T18:27:13.739Z,17.59
2023-03-17T18:29:40.520Z,17.56
2023-03-17T18:32:08.066Z,17.55
2023-03-17T18:34:43.239Z,17.54
2023-03-17T18:37:12.452Z,17.53
2023-03-17T18:39:42.159Z,17.51
2023-03-17T18:42:09.562Z,17.48
2023-03-17T18:44:36.501Z,17.47
2023-03-17T18:47:05.904Z,17.44
2023-03-17T18:49:32.402Z,17.45
2023-03-17T18:51:59.632Z,17.39
2023-03-17T18:54:27.751Z,17.37
2023-03-17T18:56:55.052Z,17.35
2023-03-17T18:59:21.580Z,17.31
2023-03-17T19:01:47.959Z,17.30
2023-03-17T19:04:14.468Z,17.29
2023-03-17T19:06:44.881Z,17.26
2023-03-17T19:09:11.573Z,17.25
2023-03-17T19:11:41.225Z,17.22
2023-03-17T19:14:08.803Z,17.19
2023-03-17T19:16:36.024Z,17.16
2023-03-17T19:19:02.878Z,17.12
2023-03-17T19:21:29.616Z,17.13
2023-03-17T19:23:59.845Z,17.11
2023-03-17T19:26:27.042Z,17.07
2023-03-17T19:28:56.156Z,17.07
2023-03-17T19:31:24.716Z,17.07
2023-03-17T19:33:52.063Z,17.03
2023-03-17T19:36:18.498Z,17.05
2023-03-17T19:38:44.965Z,17.01
2023-03-17T19:41:11.364Z,17.03
2023-03-17T19:43:41.085Z,17.06
2023-03-17T19:46:10.202Z,17.06
2023-03-17T19:48:37.319Z,17.06
2023-03-17T19:51:04.415Z,17.09
2023-03-17T19:53:31.299Z,17.11
2023-03-17T19:55:57.762Z,17.11
2023-03-17T19:58:24.240Z,17.13
2023-03-17T20:00:50.703Z,17.14
2023-03-17T20:03:17.682Z,17.14
2023-03-17T20:05:45.728Z,17.14
2023-03-17T20:08:12.167Z,17.10
2023-03-17T20:10:38.913Z,17.06
2023-03-17T20:13:06.391Z,17.03
2023-03-17T20:15:33.633Z,17.00
2023-03-17T20:18:00.746Z,16.99
2023-03-17T20:20:27.397Z,16.94
2023-03-17T20:22:55.008Z,16.94
2023-03-17T20:25:21.793Z,16.95
2023-03-17T20:27:48.326Z,16.93
2023-03-17T20:30:15.217Z,16.94
2023-03-17T20:32:41.698Z,16.90
2023-03-17T20:35:08.889Z,16.88
2023-03-17T20:37:35.707Z,16.87
2023-03-17T20:40:05.063Z,16.88
2023-03-17T20:42:32.030Z,16.86
2023-03-17T20:44:58.930Z,16.87
2023-03-17T20:47:26.656Z,16.86
2023-03-17T20:49:57.779Z,16.84
2023-03-17T20:52:27.685Z,16.82
2023-03-17T20:54:55.188Z,16.76
2023-03-17T20:57:21.641Z,16.73
2023-03-17T20:59:48.423Z,16.70
2023-03-17T21:02:19.498Z,16.70
2023-03-17T21:04:48.766Z,16.68
2023-03-17T21:07:17.625Z,16.65
2023-03-17T21:09:45.275Z,16.60
2023-03-17T21:12:14.375Z,16.57
2023-03-17T21:14:41.113Z,16.58
2023-03-17T21:17:07.801Z,16.57
2023-03-17T21:19:34.637Z,16.58
2023-03-17T21:22:01.094Z,16.58
2023-03-17T21:24:33.592Z,16.59
2023-03-17T21:27:01.971Z,16.59
2023-03-17T21:29:29.803Z,16.58
2023-03-17T21:32:00.430Z,16.54
2023-03-17T21:34:28.439Z,16.37
2023-03-17T21:36:54.907Z,16.50
2023-03-17T21:39:21.378Z,16.45
2023-03-17T21:41:49.218Z,16.40
2023-03-17T21:44:15.986Z,16.38
2023-03-17T21:46:43.578Z,16.40
2023-03-17T21:49:10.045Z,16.42
2023-03-17T21:51:36.482Z,16.40
2023-03-17T21:54:06.230Z,16.38
2023-03-17T21:56:33.417Z,16.37
2023-03-17T21:58:59.907Z,16.34
2023-03-17T22:01:26.519Z,16.32
2023-03-17T22:03:53.290Z,16.34
2023-03-17T22:06:20.754Z,16.31
2023-03-17T22:08:48.083Z,16.26
2023-03-17T22:11:19.523Z,16.22
2023-03-17T22:13:47.477Z,16.17
2023-03-17T22:16:15.316Z,16.09
2023-03-17T22:18:42.772Z,16.03
2023-03-17T22:21:10.117Z,15.93
2023-03-17T22:23:41.463Z,15.79
2023-03-17T22:26:13.246Z,15.86
2023-03-17T22:28:40.793Z,15.85
2023-03-17T22:31:18.318Z,15.83
2023-03-17T22:33:45.322Z,15.83
2023-03-17T22:36:12.419Z,15.80
2023-03-17T22:38:39.050Z,15.75
2023-03-17T22:41:08.290Z,15.73
2023-03-17T22:43:36.672Z,15.68
2023-03-17T22:46:03.507Z,15.66
2023-03-17T22:48:32.247Z,15.60
2023-03-17T22:51:07.720Z,15.60
2023-03-17T22:53:35.321Z,15.57
2023-03-17T22:56:02.127Z,15.55
2023-03-17T22:58:28.960Z,15.56
2023-03-17T23:00:56.420Z,15.52
2023-03-17T23:03:25.848Z,15.50
2023-03-17T23:05:57.027Z,15.47
2023-03-17T23:08:26.498Z,15.47
2023-03-17T23:10:53.990Z,15.45
2023-03-17T23:13:20.978Z,15.39
2023-03-17T23:15:47.713Z,15.35
2023-03-17T23:18:14.485Z,15.32
2023-03-17T23:20:41.133Z,15.23
2023-03-17T23:23:08.674Z,15.16
2023-03-17T23:25:36.537Z,15.11
2023-03-17T23:28:03.691Z,15.05
2023-03-17T23:30:30.875Z,15.01
2023-03-17T23:32:58.131Z,14.98
2023-03-17T23:35:25.228Z,14.95
2023-03-17T23:37:51.978Z,14.90
2023-03-17T23:40:18.511Z,14.87
2023-03-17T23:42:48.021Z,14.82
2023-03-17T23:45:16.645Z,14.78
2023-03-17T23:47:43.446Z,14.74
2023-03-17T23:50:11.292Z,14.70
2023-03-17T23:52:38.292Z,14.66
2023-03-17T23:55:06.689Z,14.63
2023-03-17T23:57:34.777Z,14.61
